Time;durP1;ratioP1;P1;durP2;ratioP2;P2;SDS_P1;SDS_P2;PMS_P1;PMS_P2;Temp;Humidity;BMP_temperature;BMP_pressure;BME280_temperature;BME280_humidity;BME280_pressure;Samples;Min_cycle;Max_cycle;Signal;HPM_P1;HPM_P2
2022/04/02 00:00:03;;;;;;;3.10;1.80;;;19.30;46.70;;;;;;5084969;28;20075;-73
2022/04/02 00:02:28;;;;;;;6.88;1.80;;;19.30;46.70;;;;;;5119328;27;20076;-73
2022/04/02 00:04:54;;;;;;;3.97;1.85;;;19.30;46.80;;;;;;5089514;28;20126;-74
2022/04/02 00:07:20;;;;;;;3.47;2.03;;;19.30;46.70;;;;;;5084817;28;20052;-74
2022/04/02 00:09:46;;;;;;;2.70;1.58;;;19.30;46.70;;;;;;5083741;28;20559;-72
2022/04/02 00:12:12;;;;;;;2.40;1.67;;;19.30;46.70;;;;;;5093883;28;20169;-73
2022/04/02 00:14:37;;;;;;;2.33;1.60;;;19.30;46.70;;;;;;5085296;28;20044;-72
2022/04/02 00:17:03;;;;;;;2.05;1.67;;;19.30;46.70;;;;;;5083503;28;20044;-72
2022/04/02 00:19:30;;;;;;;2.42;1.70;;;19.30;46.70;;;;;;5084836;28;20052;-72
2022/04/02 00:21:56;;;;;;;2.25;1.50;;;19.30;46.70;;;;;;5083166;28;20056;-73
2022/04/02 00:24:22;;;;;;;2.92;1.67;;;19.20;46.60;;;;;;5085343;28;20511;-73
2022/04/02 00:26:47;;;;;;;2.53;1.55;;;19.30;46.60;;;;;;5083164;28;20055;-73
2022/04/02 00:29:13;;;;;;;1.52;1.42;;;19.20;46.60;;;;;;5084740;28;20036;-73
2022/04/02 00:31:40;;;;;;;3.40;1.70;;;19.30;46.60;;;;;;5084878;28;20047;-72
2022/04/02 00:34:07;;;;;;;2.70;1.70;;;19.30;46.50;;;;;;5083975;28;20071;-74
2022/04/02 00:36:37;;;;;;;2.65;1.60;;;19.30;46.50;;;;;;5084553;28;20044;-72
2022/04/02 00:39:06;;;;;;;2.10;1.40;;;19.20;46.50;;;;;;5066283;28;20063;-72
2022/04/02 00:41:32;;;;;;;2.30;1.50;;;19.20;46.50;;;;;;5083480;28;20399;-72
2022/04/02 00:44:09;;;;;;;1.80;1.40;;;19.30;46.50;;;;;;5083608;28;20046;-72
2022/04/02 00:46:36;;;;;;;1.35;1.23;;;19.30;46.50;;;;;;5084470;28;20508;-74
2022/04/02 00:49:04;;;;;;;1.98;1.35;;;19.20;46.40;;;;;;5100828;28;20079;-73
2022/04/02 00:51:31;;;;;;;2.42;1.38;;;19.20;46.40;;;;;;5096838;28;20053;-73
2022/04/02 00:53:57;;;;;;;1.70;1.30;;;19.20;46.40;;;;;;5098951;28;20474;-73
2022/04/02 00:56:23;;;;;;;2.05;1.30;;;19.20;46.40;;;;;;5115180;28;20052;-72
2022/04/02 00:58:49;;;;;;;2.50;1.45;;;19.20;46.40;;;;;;5101522;28;20053;-72
2022/04/02 01:01:16;;;;;;;1.52;1.30;;;19.20;46.40;;;;;;5082419;28;20029;-73
2022/04/02 01:03:43;;;;;;;1.48;1.30;;;19.20;46.40;;;;;;5102014;28;20067;-71
2022/04/02 01:06:10;;;;;;;2.00;1.30;;;19.20;46.30;;;;;;5083304;28;20052;-73
2022/04/02 01:08:37;;;;;;;1.70;1.25;;;19.20;46.30;;;;;;5082938;28;20492;-73
2022/04/02 01:11:03;;;;;;;1.58;1.15;;;19.20;46.30;;;;;;5073673;28;20391;-72
2022/04/02 01:13:29;;;;;;;1.73;1.35;;;19.20;46.30;;;;;;5085089;28;20638;-73
2022/04/02 01:15:56;;;;;;;1.80;1.35;;;19.20;46.30;;;;;;5085547;28;20060;-73
2022/04/02 01:18:22;;;;;;;2.40;1.20;;;19.20;46.30;;;;;;5084333;28;20040;-71
2022/04/02 01:20:48;;;;;;;2.03;1.33;;;19.20;46.30;;;;;;5099581;28;20044;-73
2022/04/02 01:23:14;;;;;;;2.28;1.40;;;19.20;46.40;;;;;;5079501;28;20052;-72
2022/04/02 01:25:40;;;;;;;1.48;1.15;;;19.20;46.20;;;;;;5091720;28;20122;-72
2022/04/02 01:28:06;;;;;;;1.55;1.13;;;19.20;46.20;;;;;;5109470;28;20395;-72
2022/04/02 01:30:32;;;;;;;1.58;1.20;;;19.20;46.20;;;;;;5084999;28;20028;-72
2022/04/02 01:32:58;;;;;;;1.83;1.23;;;19.20;46.20;;;;;;5071258;28;20032;-72
2022/04/02 01:35:24;;;;;;;1.77;1.27;;;19.20;46.20;;;;;;5086894;28;20040;-71
2022/04/02 01:37:50;;;;;;;1.80;1.20;;;19.20;46.20;;;;;;5070544;28;20980;-72
2022/04/02 01:40:16;;;;;;;1.60;1.25;;;19.20;46.30;;;;;;5101643;28;20139;-73
2022/04/02 01:42:42;;;;;;;1.83;1.10;;;19.20;46.20;;;;;;5088076;28;20048;-73
2022/04/02 01:45:08;;;;;;;1.38;1.02;;;19.20;46.20;;;;;;5087459;28;20060;-72
2022/04/02 01:47:35;;;;;;;1.23;1.13;;;19.20;46.10;;;;;;5098206;28;20040;-77
2022/04/02 01:50:00;;;;;;;2.17;1.20;;;19.20;46.10;;;;;;5099726;28;20064;-76
2022/04/02 01:52:26;;;;;;;1.40;1.20;;;19.20;46.20;;;;;;5120930;27;20153;-77
2022/04/02 01:54:56;;;;;;;2.42;1.15;;;19.20;46.10;;;;;;5087466;28;20063;-76
2022/04/02 01:57:22;;;;;;;2.25;1.05;;;19.20;46.20;;;;;;5086039;28;20555;-74
2022/04/02 01:59:49;;;;;;;1.65;1.15;;;19.20;46.10;;;;;;5104793;28;20123;-77
2022/04/02 02:02:16;;;;;;;1.48;1.00;;;19.20;46.10;;;;;;5086744;28;20655;-73
2022/04/02 02:04:42;;;;;;;1.80;1.08;;;19.20;46.10;;;;;;5087142;28;20123;-74
2022/04/02 02:07:08;;;;;;;1.63;1.10;;;19.10;46.10;;;;;;5088306;28;20131;-73
2022/04/02 02:09:34;;;;;;;1.73;1.20;;;19.20;46.10;;;;;;5120158;27;20499;-76
2022/04/02 02:12:03;;;;;;;1.77;0.95;;;19.20;46.20;;;;;;5086935;28;20048;-77
2022/04/02 02:14:29;;;;;;;1.10;1.00;;;19.20;46.10;;;;;;5087773;28;20040;-73
2022/04/02 02:16:56;;;;;;;1.90;1.13;;;19.10;46.10;;;;;;5087197;28;20040;-73
2022/04/02 02:19:23;;;;;;;1.95;1.30;;;19.10;46.10;;;;;;5085844;28;20431;-79
2022/04/02 02:21:50;;;;;;;1.23;0.90;;;19.20;46.10;;;;;;5086875;28;20051;-76
2022/04/02 02:24:16;;;;;;;1.40;0.98;;;19.10;46.10;;;;;;5087973;28;20091;-75
2022/04/02 02:26:42;;;;;;;1.90;1.10;;;19.20;46.10;;;;;;5085422;28;20051;-75
2022/04/02 02:29:07;;;;;;;2.60;1.08;;;19.20;46.10;;;;;;5078430;28;20040;-75
2022/04/02 02:31:34;;;;;;;1.95;1.00;;;19.10;46.10;;;;;;5085557;28;20571;-73
2022/04/02 02:36:44;;;;;;;1.45;0.90;;;19.20;46.10;;;;;;5083612;28;20432;-73
2022/04/02 02:39:10;;;;;;;1.67;1.00;;;19.20;46.10;;;;;;5069338;28;20048;-74
2022/04/02 02:41:35;;;;;;;1.63;1.05;;;19.20;46.10;;;;;;5084551;28;20032;-74
2022/04/02 02:44:01;;;;;;;1.98;0.95;;;19.20;46.10;;;;;;5086014;28;20040;-72
2022/04/02 02:46:26;;;;;;;2.92;1.00;;;19.20;46.10;;;;;;5083644;28;20044;-72
2022/04/02 02:48:52;;;;;;;1.27;0.90;;;19.10;46.10;;;;;;5083100;28;20056;-73
2022/04/02 02:51:18;;;;;;;0.93;0.77;;;19.10;46.10;;;;;;5086348;28;20070;-72
2022/04/02 02:53:46;;;;;;;2.45;1.17;;;19.10;46.10;;;;;;5084750;28;20152;-73
2022/04/02 02:56:12;;;;;;;;;;;19.10;46.10;;;;;;5097210;28;20047;-74
2022/04/02 02:58:37;;;;;;;1.52;1.00;;;19.20;46.10;;;;;;5079187;28;20015;-73
2022/04/02 03:01:04;;;;;;;1.55;0.90;;;19.10;46.10;;;;;;5080216;28;20483;-78
2022/04/02 03:03:31;;;;;;;3.55;0.90;;;19.10;46.00;;;;;;5080171;28;20050;-74
2022/04/02 03:05:57;;;;;;;2.03;0.90;;;19.10;46.10;;;;;;5084446;28;20048;-79
2022/04/02 03:08:22;;;;;;;0.95;0.90;;;19.10;46.10;;;;;;5087951;28;20518;-80
2022/04/02 03:10:48;;;;;;;1.02;0.82;;;19.20;46.10;;;;;;5092677;28;20479;-77
2022/04/02 03:13:14;;;;;;;1.92;0.73;;;19.10;46.10;;;;;;5086434;28;20373;-80
2022/04/02 03:15:40;;;;;;;1.45;0.80;;;19.20;46.10;;;;;;5086380;28;20062;-79
2022/04/02 03:18:07;;;;;;;1.30;0.93;;;19.20;46.10;;;;;;5086629;28;20052;-77
2022/04/02 03:20:35;;;;;;;1.43;0.80;;;19.20;46.10;;;;;;5086840;28;20078;-77
2022/04/02 03:23:02;;;;;;;1.05;0.90;;;19.20;46.10;;;;;;5101389;28;20676;-77
2022/04/02 03:25:29;;;;;;;1.73;0.80;;;19.20;46.10;;;;;;5087686;28;20048;-79
2022/04/02 03:27:55;;;;;;;1.30;0.88;;;19.20;46.10;;;;;;5083567;28;20548;-74
2022/04/02 03:30:22;;;;;;;1.15;0.90;;;19.20;46.10;;;;;;5080345;28;20118;-80
2022/04/02 03:32:49;;;;;;;1.05;0.80;;;19.20;46.10;;;;;;5101462;28;20043;-78
2022/04/02 03:35:15;;;;;;;0.90;0.70;;;19.20;46.10;;;;;;5085669;28;20051;-79
2022/04/02 03:37:42;;;;;;;1.45;0.75;;;19.10;46.00;;;;;;5084689;28;20117;-77
2022/04/02 03:40:14;;;;;;;1.20;0.90;;;19.10;46.00;;;;;;5101262;28;20060;-80
2022/04/02 03:42:41;;;;;;;1.65;0.90;;;19.20;46.10;;;;;;5085109;28;20051;-80
2022/04/02 03:45:11;;;;;;;1.42;0.80;;;19.10;46.00;;;;;;5066505;28;20044;-78
2022/04/02 03:47:36;;;;;;;1.90;0.80;;;19.10;45.90;;;;;;5085665;28;20052;-79
2022/04/02 03:50:03;;;;;;;3.65;0.88;;;19.10;46.00;;;;;;5085147;28;20052;-74
2022/04/02 03:52:29;;;;;;;0.68;0.68;;;19.20;46.00;;;;;;5086027;28;20124;-78
2022/04/02 03:54:54;;;;;;;0.80;0.70;;;19.20;46.00;;;;;;5086381;28;20135;-75
2022/04/02 03:57:21;;;;;;;0.88;0.80;;;19.10;45.90;;;;;;5084283;28;20111;-74
2022/04/02 03:59:47;;;;;;;1.05;0.70;;;19.10;45.90;;;;;;5119657;27;20495;-75
2022/04/02 04:02:12;;;;;;;2.33;0.80;;;19.10;46.00;;;;;;5101146;28;20386;-75
2022/04/02 04:04:39;;;;;;;1.20;0.73;;;19.10;45.90;;;;;;5085178;28;20484;-78
2022/04/02 04:07:06;;;;;;;1.38;0.70;;;19.10;45.90;;;;;;5100592;28;20086;-79
2022/04/02 04:09:32;;;;;;;1.13;0.70;;;19.20;46.00;;;;;;5085861;28;20514;-80
2022/04/02 04:11:58;;;;;;;1.45;0.77;;;19.10;45.90;;;;;;5101056;27;20146;-79
2022/04/02 04:14:24;;;;;;;1.58;0.70;;;19.10;45.90;;;;;;5084845;28;20139;-80
2022/04/02 04:16:50;;;;;;;3.05;0.90;;;19.10;45.90;;;;;;5086136;28;20048;-74
2022/04/02 04:19:16;;;;;;;1.38;0.88;;;19.10;46.00;;;;;;5083872;28;20036;-72
2022/04/02 04:21:43;;;;;;;2.00;0.80;;;19.10;45.90;;;;;;5107934;27;20052;-73
2022/04/02 04:24:09;;;;;;;2.13;0.75;;;19.10;45.90;;;;;;5083967;28;20058;-75
2022/04/02 04:26:35;;;;;;;1.35;0.80;;;19.10;46.00;;;;;;5083903;28;20044;-73
2022/04/02 04:29:01;;;;;;;0.75;0.70;;;19.10;46.00;;;;;;5083597;28;20036;-72
2022/04/02 04:31:27;;;;;;;1.05;0.70;;;19.10;45.90;;;;;;5084274;28;20047;-77
2022/04/02 04:33:53;;;;;;;1.02;0.80;;;19.10;46.00;;;;;;5085061;28;20070;-78
2022/04/02 04:36:19;;;;;;;2.15;0.70;;;19.10;45.90;;;;;;5083880;28;20059;-78
2022/04/02 04:38:46;;;;;;;1.48;0.70;;;19.10;45.90;;;;;;5084043;28;20044;-77
2022/04/02 04:41:13;;;;;;;1.10;0.70;;;19.10;46.00;;;;;;5099195;28;20495;-77
2022/04/02 04:43:41;;;;;;;1.00;0.65;;;19.10;46.00;;;;;;5085941;28;20044;-79
2022/04/02 04:46:07;;;;;;;1.00;0.70;;;19.10;46.00;;;;;;5096682;28;20076;-77
2022/04/02 04:48:33;;;;;;;1.00;0.70;;;19.10;46.00;;;;;;5067262;28;20055;-79
2022/04/02 04:50:58;;;;;;;1.75;0.82;;;19.10;46.00;;;;;;5073118;28;20024;-78
2022/04/02 04:53:24;;;;;;;2.22;0.60;;;19.10;45.90;;;;;;5084464;28;20435;-79
2022/04/02 04:55:50;;;;;;;1.00;0.70;;;19.10;45.90;;;;;;5101199;28;20044;-77
2022/04/02 04:58:15;;;;;;;1.40;0.70;;;19.10;45.90;;;;;;5082598;28;20044;-75
2022/04/02 05:00:41;;;;;;;1.38;0.80;;;19.10;45.90;;;;;;5085407;28;20029;-76
2022/04/02 05:03:08;;;;;;;1.17;0.60;;;19.10;45.90;;;;;;5083191;28;20044;-78
2022/04/02 05:05:35;;;;;;;1.08;0.60;;;19.10;45.90;;;;;;5069786;28;20039;-77
2022/04/02 05:08:02;;;;;;;1.55;0.75;;;19.10;46.00;;;;;;5087544;28;20076;-77
2022/04/02 05:10:28;;;;;;;1.27;0.70;;;19.10;45.90;;;;;;5122494;27;20054;-79
2022/04/02 05:12:54;;;;;;;0.80;0.70;;;19.10;45.90;;;;;;5087342;28;20056;-76
2022/04/02 05:15:21;;;;;;;1.17;0.77;;;19.10;45.90;;;;;;5089083;28;20520;-79
2022/04/02 05:17:47;;;;;;;1.70;0.68;;;19.10;46.70;;;;;;5102180;28;20058;-77
2022/04/02 05:20:14;;;;;;;0.95;0.68;;;19.10;45.90;;;;;;5086531;28;20036;-79
2022/04/02 05:22:43;;;;;;;0.67;0.50;;;19.10;45.80;;;;;;5087627;28;20517;-77
2022/04/02 05:25:09;;;;;;;1.25;0.70;;;19.10;45.90;;;;;;5081557;28;20044;-82
2022/04/02 05:27:35;;;;;;;0.68;0.57;;;19.10;45.90;;;;;;5098714;28;20479;-80
2022/04/02 05:30:01;;;;;;;2.65;0.90;;;19.10;45.80;;;;;;5074420;28;20051;-77
2022/04/02 05:32:28;;;;;;;1.42;0.70;;;19.10;45.70;;;;;;5082579;28;20048;-73
2022/04/02 05:34:54;;;;;;;4.43;0.60;;;19.10;45.80;;;;;;5088675;28;20166;-75
2022/04/02 05:37:20;;;;;;;2.85;0.90;;;19.10;45.90;;;;;;5087947;28;20052;-78
2022/04/02 05:39:46;;;;;;;0.85;0.65;;;19.20;46.00;;;;;;5085952;28;20048;-80
2022/04/02 05:42:12;;;;;;;1.83;0.80;;;19.10;46.00;;;;;;5117882;27;20050;-79
2022/04/02 05:44:39;;;;;;;1.27;0.63;;;19.20;46.10;;;;;;5119498;27;20039;-80
2022/04/02 05:47:05;;;;;;;1.35;0.60;;;19.10;46.10;;;;;;5082051;28;20052;-80
2022/04/02 05:49:31;;;;;;;0.93;0.60;;;19.20;46.20;;;;;;5068454;28;20119;-75
2022/04/02 05:52:01;;;;;;;0.90;0.60;;;19.20;46.30;;;;;;5088115;28;20169;-80
2022/04/02 05:54:26;;;;;;;1.77;0.60;;;19.20;47.00;;;;;;5087298;28;20510;-81
2022/04/02 05:56:52;;;;;;;1.17;0.63;;;19.20;46.30;;;;;;5095089;27;20029;-76
2022/04/02 05:59:19;;;;;;;1.67;0.75;;;19.20;46.30;;;;;;5087570;28;20121;-75
2022/04/02 06:01:45;;;;;;;0.93;0.55;;;19.20;46.30;;;;;;5086321;28;20044;-73
2022/04/02 06:04:10;;;;;;;1.13;0.60;;;19.20;46.30;;;;;;5082881;28;20149;-76
2022/04/02 06:06:37;;;;;;;1.95;0.82;;;19.20;46.30;;;;;;5084516;28;20291;-74
2022/04/02 06:09:03;;;;;;;1.58;0.70;;;19.20;46.30;;;;;;5084707;28;20091;-74
2022/04/02 06:11:30;;;;;;;1.10;0.60;;;19.20;46.30;;;;;;5064723;28;20044;-70
2022/04/02 06:16:26;;;;;;;2.40;0.85;;;19.20;45.60;;;;;;5114649;27;20333;-69
2022/04/02 06:18:53;;;;;;;0.90;0.80;;;19.20;46.30;;;;;;5115505;27;20035;-68
2022/04/02 06:21:19;;;;;;;1.85;0.90;;;19.20;46.10;;;;;;5118179;28;20486;-67
2022/04/02 06:23:45;;;;;;;1.30;0.80;;;19.20;46.10;;;;;;5097628;28;20055;-72
2022/04/02 06:26:11;;;;;;;1.92;1.00;;;19.20;46.10;;;;;;5085589;28;20452;-72
2022/04/02 06:28:37;;;;;;;4.88;0.90;;;19.20;46.10;;;;;;5081678;28;20028;-70
2022/04/02 06:31:04;;;;;;;4.32;1.02;;;19.20;46.10;;;;;;5085287;28;20036;-70
2022/04/02 06:33:31;;;;;;;11.50;0.90;;;19.20;46.20;;;;;;5089663;28;20372;-69
2022/04/02 06:35:57;;;;;;;2.57;0.87;;;19.20;46.30;;;;;;5085459;28;20036;-68
2022/04/02 06:38:23;;;;;;;4.22;0.70;;;19.20;46.60;;;;;;5089988;28;20286;-69
2022/04/02 06:40:49;;;;;;;2.75;0.88;;;19.30;46.80;;;;;;5100847;28;20097;-68
2022/04/02 06:43:14;;;;;;;3.42;0.90;;;19.30;46.90;;;;;;5095573;28;20139;-70
2022/04/02 06:45:40;;;;;;;2.70;0.90;;;19.30;47.00;;;;;;5085572;28;20083;-70
2022/04/02 06:48:06;;;;;;;1.85;0.90;;;19.40;47.00;;;;;;5092846;28;20036;-70
2022/04/02 06:50:32;;;;;;;1.98;1.27;;;19.40;47.10;;;;;;5086807;28;20052;-70
2022/04/02 06:52:58;;;;;;;4.72;0.93;;;19.40;47.10;;;;;;5088065;28;20040;-68
2022/04/02 06:55:23;;;;;;;2.75;0.85;;;19.50;47.20;;;;;;5086876;28;20063;-69
2022/04/02 06:57:57;;;;;;;3.10;0.80;;;19.50;47.10;;;;;;5092287;28;20040;-68
2022/04/02 07:00:23;;;;;;;1.10;0.70;;;19.50;47.20;;;;;;5099503;28;20111;-70
2022/04/02 07:02:49;;;;;;;1.65;0.70;;;19.60;47.20;;;;;;5086298;28;20036;-66
2022/04/02 07:05:16;;;;;;;1.77;0.75;;;19.60;47.20;;;;;;5085602;28;20052;-68
2022/04/02 07:07:43;;;;;;;3.13;0.82;;;19.60;47.20;;;;;;5085853;28;20044;-71
2022/04/02 07:10:09;;;;;;;1.65;0.70;;;19.70;47.30;;;;;;5099235;28;20044;-70
2022/04/02 07:12:35;;;;;;;4.10;0.93;;;19.70;47.40;;;;;;5092011;28;20088;-70
2022/04/02 07:15:02;;;;;;;2.10;0.82;;;19.70;47.30;;;;;;5092168;28;20063;-71
2022/04/02 07:17:28;;;;;;;3.38;0.95;;;19.80;47.40;;;;;;5094301;28;20075;-70
2022/04/02 07:19:59;;;;;;;4.00;0.90;;;19.80;47.30;;;;;;5086072;28;20521;-69
2022/04/02 07:22:26;;;;;;;1.30;0.70;;;19.80;47.40;;;;;;5089740;28;20039;-70
2022/04/02 07:24:53;;;;;;;3.70;0.88;;;19.80;47.30;;;;;;5090676;28;20048;-72
2022/04/02 07:27:23;;;;;;;3.67;0.80;;;19.80;47.30;;;;;;5084471;28;20055;-69
2022/04/02 07:29:52;;;;;;;1.73;0.80;;;19.90;47.50;;;;;;5074858;28;20052;-70
2022/04/02 07:32:18;;;;;;;3.60;1.15;;;19.90;47.50;;;;;;5071163;28;20049;-71
2022/04/02 07:34:43;;;;;;;2.53;0.98;;;19.90;47.60;;;;;;5086253;28;20355;-71
2022/04/02 07:37:24;;;;;;;3.33;0.75;;;20.00;47.60;;;;;;5074139;28;20068;-70
2022/04/02 07:40:06;;;;;;;7.85;0.93;;;20.00;47.70;;;;;;5071823;28;20040;-69
2022/04/02 07:43:10;;;;;;;1.58;0.90;;;20.00;47.60;;;;;;5075149;28;20093;-69
2022/04/02 07:45:40;;;;;;;2.65;0.88;;;20.10;47.70;;;;;;5075226;28;20040;-66
2022/04/02 07:48:08;;;;;;;3.33;1.00;;;20.10;47.60;;;;;;5075912;28;20039;-68
2022/04/02 07:50:34;;;;;;;2.05;0.73;;;20.10;47.50;;;;;;5078307;28;20661;-68
2022/04/02 07:53:06;;;;;;;1.83;0.85;;;20.20;47.50;;;;;;5080051;28;20041;-66
2022/04/02 07:55:34;;;;;;;1.23;0.80;;;20.20;47.50;;;;;;5071680;28;20051;-66
2022/04/02 07:58:02;;;;;;;1.83;0.70;;;20.20;47.50;;;;;;5068497;28;20106;-69
2022/04/02 08:00:28;;;;;;;;;;;20.20;47.30;;;;;;5076082;28;20483;-66
2022/04/02 08:02:56;;;;;;;8.48;0.93;;;20.20;47.20;;;;;;5074956;28;20002;-66
2022/04/02 08:05:22;;;;;;;2.83;0.90;;;20.20;47.50;;;;;;5083079;28;20040;-70
2022/04/02 08:07:55;;;;;;;3.15;0.70;;;20.20;47.40;;;;;;5082222;28;20041;-68
2022/04/02 08:10:24;;;;;;;1.92;0.70;;;20.20;47.40;;;;;;5081227;28;20738;-68
2022/04/02 08:12:50;;;;;;;5.30;0.73;;;20.20;47.50;;;;;;5076057;28;20043;-68
2022/04/02 08:15:21;;;;;;;2.55;0.90;;;20.20;47.50;;;;;;5080587;28;20057;-67
2022/04/02 08:17:56;;;;;;;1.77;0.70;;;20.20;47.60;;;;;;5074671;28;20043;-69
2022/04/02 08:20:24;;;;;;;2.88;0.80;;;20.20;47.60;;;;;;5079195;28;20043;-69
2022/04/02 08:22:51;;;;;;;1.38;0.70;;;20.20;47.60;;;;;;5076408;28;20098;-71
2022/04/02 08:25:17;;;;;;;4.20;0.85;;;20.20;47.60;;;;;;5077022;28;20393;-68
2022/04/02 08:27:45;;;;;;;1.92;0.70;;;20.20;47.60;;;;;;5074196;28;20040;-67
2022/04/02 08:30:13;;;;;;;1.60;0.80;;;20.20;47.60;;;;;;5073582;28;20047;-66
2022/04/02 08:32:57;;;;;;;2.50;0.80;;;20.20;47.70;;;;;;5074584;28;20053;-67
2022/04/02 08:35:45;;;;;;;2.75;0.70;;;20.20;47.70;;;;;;5075877;28;20036;-67
2022/04/02 08:38:23;;;;;;;2.83;0.70;;;20.20;47.80;;;;;;5071085;28;20036;-68
2022/04/02 08:40:57;;;;;;;1.40;0.70;;;20.20;47.70;;;;;;5071734;28;20051;-69
2022/04/02 08:43:50;;;;;;;7.00;0.95;;;20.30;47.80;;;;;;5068274;28;20072;-69
2022/04/02 08:46:19;;;;;;;1.52;0.60;;;20.30;47.80;;;;;;5060414;28;20040;-70
2022/04/02 08:49:11;;;;;;;1.75;0.73;;;20.30;47.80;;;;;;5078065;28;20081;-70
2022/04/02 08:51:42;;;;;;;1.30;0.70;;;20.30;47.80;;;;;;5065551;28;20071;-70
2022/04/02 08:54:24;;;;;;;1.75;0.77;;;20.30;47.80;;;;;;5073981;28;20058;-69
2022/04/02 08:56:59;;;;;;;3.17;0.80;;;20.40;47.90;;;;;;5076781;28;20141;-71
2022/04/02 08:59:51;;;;;;;1.00;0.80;;;20.40;47.90;;;;;;5068506;28;20048;-71
2022/04/02 09:02:47;;;;;;;1.63;0.70;;;20.40;47.90;;;;;;5057704;28;20441;-72
2022/04/02 09:05:48;;;;;;;2.10;0.70;;;20.40;47.80;;;;;;5070474;28;20052;-70
2022/04/02 09:08:49;;;;;;;5.00;0.90;;;20.40;47.60;;;;;;5084976;28;20052;-70
2022/04/02 09:11:22;;;;;;;2.35;0.60;;;20.40;47.50;;;;;;5012282;28;20053;-73
2022/04/02 09:14:12;;;;;;;2.08;0.70;;;20.40;47.60;;;;;;5067939;28;20044;-71
2022/04/02 09:17:14;;;;;;;1.27;0.65;;;20.40;47.50;;;;;;5019442;28;20054;-70
2022/04/02 09:20:00;;;;;;;1.55;0.90;;;20.30;47.30;;;;;;5036303;28;20496;-70
2022/04/02 09:22:39;;;;;;;0.98;0.63;;;20.30;47.30;;;;;;5029835;28;20088;-70
2022/04/02 09:25:32;;;;;;;1.60;0.70;;;20.20;47.20;;;;;;5024140;28;20040;-70
2022/04/02 09:28:30;;;;;;;5.90;0.75;;;20.20;47.10;;;;;;5028604;28;20115;-70
2022/04/02 09:31:21;;;;;;;2.00;0.80;;;20.20;47.10;;;;;;5024312;28;20049;-70
2022/04/02 09:34:19;;;;;;;2.03;0.70;;;20.20;47.10;;;;;;5032111;28;20496;-73
2022/04/02 09:37:02;;;;;;;2.22;0.65;;;20.20;47.10;;;;;;5027673;28;20052;-69
2022/04/02 09:40:06;;;;;;;2.22;0.80;;;20.20;47.20;;;;;;5029047;28;20061;-69
2022/04/02 09:42:45;;;;;;;9.13;0.90;;;20.20;47.10;;;;;;5017719;28;20095;-70
2022/04/02 09:45:18;;;;;;;1.52;0.63;;;20.20;47.20;;;;;;5026317;28;20320;-72
2022/04/02 09:48:01;;;;;;;1.33;0.68;;;20.20;47.10;;;;;;5029057;28;20044;-70
2022/04/02 09:50:28;;;;;;;2.60;0.80;;;20.20;47.10;;;;;;5027013;28;20048;-70
2022/04/02 09:53:04;;;;;;;1.20;0.70;;;20.20;47.00;;;;;;5028965;28;20042;-69
2022/04/02 09:55:36;;;;;;;9.52;1.00;;;20.30;46.90;;;;;;5027776;28;20043;-70
2022/04/02 09:58:26;;;;;;;4.63;0.85;;;20.30;46.70;;;;;;5025170;28;21649;-70
2022/04/02 10:01:03;;;;;;;2.70;0.90;;;20.30;46.60;;;;;;5028978;28;20037;-67
2022/04/02 10:03:51;;;;;;;11.02;1.00;;;20.30;46.50;;;;;;5021965;28;20046;-66
2022/04/02 10:06:20;;;;;;;4.75;1.10;;;20.40;46.30;;;;;;5026056;28;20049;-69
2022/04/02 10:09:09;;;;;;;5.38;0.70;;;20.40;46.30;;;;;;5028720;28;20049;-69
2022/04/02 10:11:57;;;;;;;5.15;1.13;;;20.30;46.30;;;;;;5023717;28;20128;-70
2022/04/02 10:14:28;;;;;;;1.23;0.90;;;20.40;46.40;;;;;;5032088;28;20045;-68
2022/04/02 10:16:56;;;;;;;3.70;1.20;;;20.30;46.30;;;;;;5057778;28;20037;-68
2022/04/02 10:19:28;;;;;;;4.60;0.93;;;20.30;46.10;;;;;;5066054;28;20029;-73
2022/04/02 10:21:57;;;;;;;8.55;0.90;;;20.30;45.80;;;;;;5067160;28;20082;-73
2022/04/02 10:24:23;;;;;;;;;;;20.30;45.80;;;;;;5058831;28;20475;-70
2022/04/02 10:26:52;;;;;;;5.75;0.80;;;20.30;45.40;;;;;;5066344;28;19959;-71
2022/04/02 10:29:43;;;;;;;4.07;1.23;;;20.30;45.70;;;;;;5054598;28;20051;-71
2022/04/02 10:32:15;;;;;;;5.22;0.82;;;20.40;45.50;;;;;;5066665;28;20051;-72
2022/04/02 10:34:55;;;;;;;4.47;1.10;;;20.40;45.50;;;;;;5062963;28;20439;-69
2022/04/02 10:37:27;;;;;;;4.80;0.88;;;20.40;45.40;;;;;;5063292;28;20121;-69
2022/04/02 10:40:00;;;;;;;2.28;0.88;;;20.40;45.50;;;;;;5063275;28;20042;-69
2022/04/02 10:42:39;;;;;;;6.22;0.70;;;20.40;45.50;;;;;;5061278;28;20566;-69
2022/04/02 10:45:14;;;;;;;2.92;0.80;;;20.40;45.70;;;;;;5064710;28;20052;-70
2022/04/02 10:47:55;;;;;;;5.35;0.90;;;20.40;45.60;;;;;;5067888;28;20048;-71
2022/04/02 10:50:24;;;;;;;3.03;0.90;;;20.40;45.60;;;;;;5057544;28;20510;-67
2022/04/02 10:52:50;;;;;;;;;;;20.50;45.70;;;;;;5067132;28;20580;-68
2022/04/02 10:55:18;;;;;;;4.80;0.90;;;20.50;45.80;;;;;;5076618;28;19972;-69
2022/04/02 10:57:44;;;;;;;5.00;0.90;;;20.50;45.90;;;;;;5061444;28;20051;-70
2022/04/02 11:00:12;;;;;;;7.30;1.10;;;20.50;45.90;;;;;;5063904;28;20122;-70
2022/04/02 11:02:45;;;;;;;3.97;0.70;;;20.40;45.90;;;;;;5066329;28;20109;-71
2022/04/02 11:05:16;;;;;;;3.17;0.82;;;20.40;45.90;;;;;;5069145;28;20064;-72
2022/04/02 11:07:49;;;;;;;6.47;0.98;;;20.40;46.00;;;;;;5062249;28;20122;-70
2022/04/02 11:10:16;;;;;;;5.15;0.90;;;20.40;46.10;;;;;;5070833;28;20044;-70
2022/04/02 11:12:44;;;;;;;4.18;0.70;;;20.40;46.20;;;;;;5068872;28;20055;-69
2022/04/02 11:15:17;;;;;;;5.82;0.88;;;20.30;46.30;;;;;;5071684;28;20044;-69
2022/04/02 11:17:46;;;;;;;6.90;1.25;;;20.30;46.40;;;;;;5069729;28;20455;-69
2022/04/02 11:20:22;;;;;;;4.68;0.80;;;20.30;46.50;;;;;;5073461;28;20090;-71
2022/04/02 11:22:51;;;;;;;4.28;0.88;;;20.30;46.50;;;;;;5073736;28;20093;-70
2022/04/02 11:25:28;;;;;;;3.00;0.90;;;20.30;46.60;;;;;;5073167;28;20033;-70
2022/04/02 11:28:00;;;;;;;8.93;1.30;;;20.40;46.70;;;;;;5069353;28;20067;-70
2022/04/02 11:30:28;;;;;;;4.72;1.02;;;20.40;46.70;;;;;;5068638;28;20048;-69
2022/04/02 11:33:09;;;;;;;4.55;0.90;;;20.40;46.60;;;;;;5072204;28;20423;-68
2022/04/02 11:35:57;;;;;;;2.42;1.02;;;20.40;46.50;;;;;;5066498;28;20101;-69
2022/04/02 11:38:29;;;;;;;;;;;20.40;46.40;;;;;;5070562;28;20044;-70
2022/04/02 11:41:00;;;;;;;13.15;1.42;;;20.50;46.50;;;;;;5067617;28;20375;-70
2022/04/02 11:43:35;;;;;;;14.23;1.08;;;20.50;46.40;;;;;;5069993;28;20895;-68
2022/04/02 11:46:05;;;;;;;4.05;1.10;;;20.50;46.40;;;;;;5072087;28;20158;-70
2022/04/02 11:48:33;;;;;;;3.92;1.10;;;20.60;46.40;;;;;;5067221;28;20368;-69
2022/04/02 11:51:16;;;;;;;5.82;1.20;;;20.60;46.30;;;;;;5071191;28;20148;-69
2022/04/02 11:53:43;;;;;;;3.47;1.20;;;20.60;46.30;;;;;;5070220;28;20119;-69
2022/04/02 11:56:37;;;;;;;4.55;1.10;;;20.70;46.40;;;;;;5058622;28;20041;-67
2022/04/02 11:59:08;;;;;;;8.05;1.10;;;20.70;46.20;;;;;;5061299;28;20029;-68
2022/04/02 12:01:51;;;;;;;3.20;1.23;;;20.70;46.00;;;;;;5065084;28;20056;-71
2022/04/02 12:04:25;;;;;;;3.05;1.27;;;20.80;45.90;;;;;;5059023;28;20041;-68
2022/04/02 12:06:54;;;;;;;19.75;2.08;;;20.80;46.00;;;;;;5063867;28;20123;-70
2022/04/02 12:09:26;;;;;;;11.43;1.48;;;20.80;46.10;;;;;;5066031;28;20553;-67
2022/04/02 12:11:56;;;;;;;9.52;1.55;;;20.80;46.10;;;;;;5061363;28;20091;-68
2022/04/02 12:14:32;;;;;;;13.35;1.98;;;20.90;46.10;;;;;;5067255;28;20075;-67
2022/04/02 12:16:59;;;;;;;12.23;1.38;;;20.90;46.10;;;;;;5085890;28;20037;-69
2022/04/02 12:19:43;;;;;;;6.53;1.30;;;21.00;46.10;;;;;;5066774;28;20053;-68
2022/04/02 12:22:27;;;;;;;10.18;1.85;;;21.00;45.90;;;;;;5069454;28;20040;-69
2022/04/02 12:25:01;;;;;;;18.02;1.45;;;21.10;46.60;;;;;;5062662;28;20095;-70
2022/04/02 12:27:33;;;;;;;14.93;1.58;;;21.20;45.60;;;;;;5063840;28;20130;-70
2022/04/02 12:30:00;;;;;;;21.58;2.08;;;21.20;45.50;;;;;;5058769;28;20051;-69
2022/04/02 12:32:30;;;;;;;21.20;1.50;;;21.40;45.60;;;;;;5060824;28;20048;-68
2022/04/02 12:35:05;;;;;;;7.78;1.38;;;21.80;45.20;;;;;;5064844;28;20044;-69
2022/04/02 12:37:52;;;;;;;13.68;1.30;;;22.10;44.50;;;;;;5058501;28;20058;-69
2022/04/02 12:40:24;;;;;;;11.20;1.50;;;22.60;43.70;;;;;;5057287;28;20044;-67
2022/04/02 12:43:00;;;;;;;10.43;1.40;;;23.00;42.80;;;;;;5064247;28;20037;-66
2022/04/02 12:45:28;;;;;;;10.02;1.77;;;23.10;42.30;;;;;;5068794;28;20101;-66
2022/04/02 12:47:57;;;;;;;12.40;1.92;;;22.90;42.40;;;;;;5071016;28;20056;-68
2022/04/02 12:50:22;;;;;;;;;;;22.90;42.60;;;;;;5068426;28;20039;-67
2022/04/02 12:52:49;;;;;;;11.25;1.33;;;23.10;42.90;;;;;;5066892;28;19924;-66
2022/04/02 12:55:24;;;;;;;6.50;1.63;;;23.60;41.90;;;;;;5062256;28;20084;-67
2022/04/02 12:58:03;;;;;;;7.75;1.40;;;24.10;40.90;;;;;;5066326;28;20036;-68
2022/04/02 13:00:38;;;;;;;8.10;1.38;;;24.20;40.30;;;;;;5067424;28;20123;-67
2022/04/02 13:03:05;;;;;;;7.43;1.40;;;24.10;40.40;;;;;;5067886;28;20067;-65
2022/04/02 13:05:48;;;;;;;7.53;1.47;;;23.80;40.60;;;;;;5061786;28;20044;-67
2022/04/02 13:08:17;;;;;;;12.80;1.80;;;23.90;40.40;;;;;;5056327;28;20033;-67